Weather observations for the past three days for
Montevideo-Chippewa County Airport
Metric (Imperial)
Date Time (cdt) Wind (kph) Vis. (km) Weather Sky Cond. Temperature (ºC) Relative Humidity Wind Chill (°C) Heat Index (°C) Pressure Precipitation (cm)
Air Dwpt 6 hour altimeter (cm) sea level (mb) 1 hr 3 hr 6 hr
Max. Min.
05 06:15 W 7 16.09 Fair CLR 0 -3 80% -2 75.77 0.0
05 05:55 W 9 16.09 Fair CLR 0 -2 87% -3 75.77 0.0
05 05:35 W 7 16.09 Fair CLR 0 -2 87% -2 75.74 0.0
05 05:15 W 7 16.09 Fair CLR 1 -2 81% -1 75.72 0.0
05 04:55 W 9 16.09 Fair CLR 1 -2 81% -2 75.72 0.0
05 04:35 W 7 16.09 Fair CLR 2 -2 75% 0 75.72 0.0
05 04:15 W 9 16.09 Fair CLR 1 -2 81% -2 75.72 0.0
05 03:55 W 7 16.09 Fair CLR 2 -2 75% 0 75.72 0.0
05 03:35 NW 7 16.09 Fair CLR 2 -2 75% 0 75.72 0.0
05 03:15 NW 6 16.09 Fair CLR 2 -1 81% 75.69 0.0
05 02:55 NW 7 16.09 Fair CLR 2 -2 75% 0 75.69 0.0
05 02:35 W 6 16.09 Fair CLR 2 -2 75% 75.69 0.0
05 02:15 W 7 16.09 Fair CLR 3 -2 70% 1 75.69 0.0
05 01:55 W 6 16.09 Fair CLR 3 -2 70% 75.69 0.0
05 01:35 W 6 16.09 Fair CLR 3 -2 70% 75.67 0.0
05 01:15 W 7 16.09 Fair CLR 4 -2 65% 2 75.67 0.0
05 00:55 W 7 16.09 Fair CLR 4 -2 65% 2 75.67 0.0
05 00:35 NW 6 16.09 Fair CLR 5 -2 61% 75.64 0.0
05 00:15 W 6 16.09 Fair CLR 5 -2 61% 75.64 0.0
04 23:55 NW 9 16.09 Fair CLR 5 -2 61% 3 75.64 0.0
04 23:35 NW 7 16.09 Fair CLR 6 -2 57% 5 75.64 0.0
04 23:15 NW 7 16.09 Fair CLR 6 -2 57% 5 75.64 0.0
04 22:55 NW 9 16.09 Fair CLR 6 -3 53% 4 75.64 0.0
04 22:35 NW 11 16.09 Fair CLR 6 -3 53% 4 75.62 0.0
04 22:15 NW 11 16.09 Fair CLR 6 -3 53% 4 75.62 0.0
04 21:55 NW 7 16.09 Fair CLR 7 -3 49% 6 75.59 0.0
04 21:35 NW 7 16.09 Fair CLR 7 -3 49% 6 75.59 0.0
04 21:15 NW 7 16.09 Fair CLR 7 -3 49% 6 75.57 0.0
04 20:55 NW 11 16.09 Fair CLR 8 -3 46% 6 75.54 0.0
04 20:35 NW 19 G 30 16.09 Fair CLR 9 -3 43% 7 75.54 0.0
04 20:15 NW 20 G 35 16.09 Fair CLR 9 -4 40% 6 75.51 0.0
04 19:55 NW 31 G 39 16.09 Fair CLR 10 -4 37% 7 75.49 0.0
04 19:35 NW 20 G 35 16.09 Fair CLR 11 -4 35% 75.49 0.0
04 19:15 NW 30 G 39 16.09 Fair CLR 11 -4 35% 75.46 0.0
04 18:55 NW 33 G 39 16.09 Fair and Breezy CLR 11 -4 35% 75.49 0.0
04 18:35 NW 35 G 46 16.09 Fair and Breezy CLR 11 -4 35% 75.49 0.0
04 18:15 NW 31 G 50 16.09 Partly Cloudy SCT065 11 -4 35% 75.46 0.0
04 17:55 NW 35 G 52 16.09 Partly Cloudy and Breezy SCT065 12 -4 33% 75.46 0.0
04 17:35 N 41 G 54 16.09 Partly Cloudy and Breezy SCT065 11 -4 35% 75.44 0.0
04 17:15 NW 37 G 54 16.09 Partly Cloudy and Breezy SCT065 12 -4 33% 75.41 0.0
04 16:55 NW 39 G 59 16.09 Partly Cloudy and Breezy SCT065 12 -3 35% 75.39 0.0
04 16:35 NW 31 G 44 16.09 Partly Cloudy SCT065 12 -3 35% 75.39 0.0
04 16:15 NW 35 G 50 16.09 Partly Cloudy and Breezy SCT055 13 -2 36% 75.39 0.0
04 15:55 NW 37 G 48 16.09 Partly Cloudy and Breezy SCT055 12 -2 38% 75.39 0.0
04 15:35 NW 33 G 48 16.09 Partly Cloudy and Breezy SCT055 12 -2 38% 75.39 0.0
04 15:15 NW 28 G 54 16.09 Partly Cloudy SCT055 13 -2 36% 75.39 0.0
04 14:55 NW 39 G 54 16.09 Fair and Breezy CLR 12 -1 41% 75.34 0.0
04 14:35 NW 33 G 52 16.09 Partly Cloudy and Breezy SCT055 13 -1 38% 75.34 0.0
04 14:15 NW 31 G 54 16.09 Partly Cloudy SCT055 13 -1 38% 75.34 0.0
04 13:55 NW 39 G 50 16.09 Partly Cloudy and Breezy SCT055 14 -1 36% 75.31 0.0
04 13:35 NW 35 G 50 16.09 Fair and Breezy CLR 14 -1 36% 75.29 0.0
04 13:15 NW 31 G 48 16.09 Fair CLR 13 0 41% 75.26 0.0
04 12:55 NW 37 G 46 16.09 Fair and Breezy CLR 14 -1 36% 75.23 0.0
04 12:35 NW 26 G 50 16.09 Fair CLR 13 1 44% 75.21 0.0
04 12:15 NW 31 G 52 16.09 Fair CLR 13 -1 38% 75.21 0.0
04 11:55 NW 33 G 48 16.09 Fair and Breezy CLR 13 0 41% 75.21 0.0
04 11:35 NW 39 G 54 16.09 Fair and Breezy CLR 13 0 41% 75.21 0.0
04 11:15 NW 37 G 57 16.09 Fair and Breezy CLR 13 -1 38% 75.16 0.0
04 10:55 NW 37 G 54 16.09 Fair and Breezy CLR 14 -1 36% 75.16 0.0
04 10:35 NW 46 G 56 16.09 Fair and Windy CLR 13 -1 38% 75.13 0.0
04 10:15 NW 39 G 52 16.09 Fair and Breezy CLR 13 2 47% 75.11 0.0
04 09:55 N 35 G 50 16.09 Fair and Breezy CLR 13 3 51% 75.11 0.0
04 09:35 NW 35 G 48 16.09 Fair and Breezy CLR 13 3 51% 75.08 0.0
04 09:15 NW 39 G 46 16.09 Fair and Breezy CLR 14 3 48% 75.06 0.0
04 08:55 NW 33 G 44 16.09 Fair and Breezy CLR 13 3 51% 75.06 0.0
04 08:35 NW 22 G 35 16.09 Fair CLR 12 4 58% 75.06 0.0
04 08:15 NW 17 16.09 Fair CLR 12 4 58% 75.06 0.0
04 07:55 NW 17 16.09 Fair CLR 11 4 62% 75.06 0.0
04 07:35 NW 17 16.09 Fair CLR 11 4 62% 75.03 0.0
04 07:15 NW 15 16.09 Fair CLR 11 4 62% 75.01 0.0
04 06:55 NW 17 16.09 Fair CLR 11 4 62% 74.98 0.0
04 06:35 W 11 16.09 Fair CLR 11 4 62% 74.96 0.0
04 06:15 NW 17 16.09 Fair CLR 11 4 62% 74.93 0.0
04 05:55 NW 24 16.09 Fair CLR 12 4 58% 74.9 0.0
04 05:35 NW 26 G 37 16.09 Fair CLR 14 4 51% 74.88 0.0
04 05:15 W 26 G 41 16.09 Fair CLR 16 3 42% 74.83 0.0
04 04:55 W 24 G 41 16.09 Fair CLR 16 2 39% 74.83 0.0
04 04:35 W 20 G 30 16.09 Fair CLR 16 1 36% 74.83 0.0
04 04:15 SW 24 G 35 16.09 Fair CLR 16 1 36% 74.75 0.0
04 03:55 SW 22 G 33 16.09 Fair CLR 15 0 36% 74.75 0.0
04 03:35 SW 20 G 35 16.09 Fair CLR 15 0 36% 74.78 0.0
04 03:15 SW 24 G 31 16.09 Fair CLR 14 0 39% 74.8 0.0
04 02:55 SW 20 G 28 16.09 Fair CLR 14 0 39% 74.83 0.0
04 02:35 SW 20 G 28 16.09 Fair CLR 14 -1 36% 74.85 0.0
04 02:15 SW 19 G 33 16.09 Fair CLR 13 -1 38% 74.88 0.0
04 01:55 SW 19 G 28 16.09 Fair CLR 13 -1 38% 74.9 0.0
04 01:35 SW 19 G 26 16.09 Fair CLR 14 -1 36% 74.93 0.0
04 01:15 SW 19 16.09 Fair CLR 13 -2 36% 74.98 0.0
04 00:55 SW 17 G 28 16.09 Fair CLR 14 -2 33% 75.01 0.0
04 00:35 SW 19 16.09 Fair CLR 14 -2 33% 75.06 0.0
04 00:15 SW 17 16.09 Fair CLR 14 -2 33% 75.08 0.0
03 23:55 SW 15 16.09 Fair CLR 13 -2 36% 75.13 0.0
03 23:35 SW 13 16.09 Fair CLR 14 -1 36% 75.13 0.0
03 23:15 SW 13 16.09 Fair CLR 14 -1 36% 75.16 0.0
03 22:55 SW 11 16.09 Fair CLR 15 -1 34% 75.21 0.0
03 22:35 SW 11 16.09 Fair CLR 15 -1 34% 75.23 0.0
03 22:15 SW 11 16.09 Fair CLR 14 -1 36% 75.26 0.0
03 21:55 SW 9 16.09 Fair CLR 14 -1 36% 75.29 0.0
03 21:35 SW 7 16.09 Fair CLR 17 -2 27% 75.29 0.0
03 21:15 SW 7 16.09 Fair CLR 18 -2 26% 75.31 0.0
03 20:55 W 7 16.09 Fair CLR 18 -2 26% 75.31 0.0
03 20:35 W 9 16.09 Fair CLR 18 -2 26% 75.34 0.0
03 20:15 W 7 16.09 Fair CLR 19 -2 24% 75.34 0.0
03 19:55 W 9 16.09 Fair CLR 20 -2 23% 75.36 0.0
03 19:35 W 9 16.09 Fair CLR 21 -2 21% 75.36 0.0
03 19:15 W 15 16.09 Fair CLR 21 -2 21% 75.36 0.0
03 18:55 W 15 16.09 Fair CLR 22 -3 19% 75.39 0.0
03 18:35 W 11 16.09 Fair CLR 22 -2 20% 75.39 0.0
03 18:15 W 17 G 28 16.09 Fair CLR 22 -1 22% 75.41 0.0
03 17:55 W 17 16.09 Fair CLR 22 -1 22% 75.44 0.0
03 17:35 NW 13 16.09 Fair CLR 22 1 25% 75.44 0.0
03 17:15 NW 9 16.09 Fair CLR 22 0 23% 75.46 0.0
03 16:55 W 19 G 35 16.09 Fair CLR 22 -1 22% 75.49 0.0
03 16:35 NW 11 G 28 16.09 Fair CLR 21 -1 23% 75.49 0.0
03 16:15 N 17 16.09 Fair CLR 21 -1 23% 75.51 0.0
03 15:55 NW 13 G 28 16.09 Fair CLR 21 0 25% 75.57 0.0
03 15:35 W 15 16.09 Fair CLR 20 0 26% 75.59 0.0
03 15:15 NW 17 G 30 16.09 Fair CLR 21 1 27% 75.62 0.0
03 14:55 NW 22 G 37 16.09 Fair CLR 20 2 30% 75.64 0.0
03 14:35 NW 19 G 35 16.09 Fair CLR 20 2 30% 75.64 0.0
03 14:15 W 19 G 28 16.09 Fair CLR 19 2 32% 75.67 0.0
03 13:55 NW 22 G 30 16.09 Fair CLR 20 2 30% 75.69 0.0
03 13:35 N 26 16.09 Fair CLR 19 2 32% 75.72 0.0
03 13:15 NW 35 G 43 16.09 Fair and Breezy CLR 19 2 32% 75.72 0.0
03 12:55 NW 28 G 41 16.09 Fair CLR 19 2 32% 75.74 0.0
03 12:35 NW 26 G 35 16.09 Fair CLR 19 2 32% 75.77 0.0
03 12:15 NW 28 G 37 16.09 Fair CLR 18 2 34% 75.77 0.0
03 11:55 NW 17 G 37 16.09 Fair CLR 18 2 34% 75.79 0.0
03 11:35 N 30 G 37 16.09 Fair CLR 18 1 32% 75.79 0.0
03 11:15 NW 20 G 28 16.09 Fair CLR 17 2 37% 75.79 0.0
03 10:55 NW 24 16.09 Fair CLR 17 3 39% 75.79 0.0
03 10:35 N 22 G 37 16.09 Fair CLR 16 3 42% 75.79 0.0
03 10:15 NW 22 16.09 Fair CLR 15 3 45% 75.77 0.0
03 09:55 NW 19 16.09 Fair CLR 14 3 48% 75.77 0.0
03 09:35 NW 20 G 31 16.09 Fair CLR 14 4 51% 75.77 0.0
03 09:15 NW 22 G 30 16.09 Fair CLR 13 4 55% 75.77 0.0
03 08:55 NW 26 16.09 Fair CLR 12 4 58% 75.77 0.0
03 08:35 NW 24 16.09 Fair CLR 11 4 62% 75.77 0.0
03 08:15 NW 26 16.09 Fair CLR 11 4 62% 75.74 0.0
03 07:55 NW 17 16.09 Fair CLR 10 4 67% 8 75.72 0.0
03 07:35 NW 17 16.09 Fair CLR 9 4 71% 7 75.69 0.0
03 07:15 NW 17 16.09 Fair CLR 8 3 71% 6 75.67 0.0
03 06:55 NW 20 16.09 Fair CLR 8 3 71% 5 75.67 0.0
03 06:35 NW 20 16.09 Fair CLR 8 3 71% 5 75.64 0.0
03 06:15 NW 22 16.09 Fair CLR 7 3 76% 4 75.62 0.0
03 05:55 NW 20 16.09 Fair CLR 8 3 71% 5 75.59 0.0
03 05:35 NW 22 16.09 Fair CLR 8 3 71% 5 75.59 0.0
03 05:15 NW 22 G 31 16.09 Fair CLR 9 3 66% 6 75.57 0.0
03 04:55 NW 22 G 30 16.09 Fair CLR 9 3 66% 6 75.57 0.0
03 04:35 NW 20 16.09 Fair CLR 9 3 66% 6 75.54 0.0
03 04:15 NW 19 16.09 Fair CLR 10 2 58% 8 75.54 0.0
03 03:55 NW 20 16.09 Fair CLR 10 3 62% 8 75.51 0.0
03 03:35 NW 19 16.09 Fair CLR 10 3 62% 8 75.51 0.0
03 03:15 NW 17 G 26 16.09 Fair CLR 11 3 58% 75.49 0.0
03 02:55 NW 15 16.09 Fair CLR 11 3 58% 75.49 0.0
03 02:35 NW 19 16.09 Fair CLR 11 4 62% 75.46 0.0
03 02:15 W 13 16.09 Fair CLR 12 3 54% 75.46 0.0
03 01:55 W 7 16.09 Fair CLR 12 3 54% 75.46 0.0
03 01:35 W 9 16.09 Fair CLR 13 2 47% 75.46 0.0
03 01:15 SW 11 16.09 Partly Cloudy SCT100 14 1 41% 75.46 0.0
03 00:55 SW 13 16.09 Partly Cloudy SCT100 14 1 41% 75.46 0.0
03 00:35 S 13 16.09 Fair CLR 14 1 41% 75.46 0.0
03 00:15 S 15 16.09 Fair CLR 15 0 36% 75.46 0.0
02 23:55 S 17 16.09 Fair CLR 16 1 36% 75.46 0.0
02 23:35 S 15 16.09 Partly Cloudy SCT100 16 1 36% 75.46 0.0
02 23:15 S 22 G 28 16.09 Mostly Cloudy BKN100 17 1 34% 75.49 0.0
02 22:55 S 15 16.09 Mostly Cloudy SCT070 BKN090 16 4 45% 75.49 0.0
02 22:35 SW 13 G 30 16.09 Mostly Cloudy SCT030 SCT070 BKN090 17 2 37% 75.54 0.0
02 22:15 SW 13 16.09 Mostly Cloudy SCT070 SCT080 BKN090 18 1 32% 75.54 0.0
02 21:55 S 15 16.09 Mostly Cloudy SCT080 BKN090 17 1 34% 75.57 0.0
02 21:35 S 9 16.09 Mostly Cloudy BKN090 18 0 30% 75.57 0.0
02 21:15 S 15 16.09 Partly Cloudy SCT090 18 -1 28% 75.62 0.0
02 20:55 W 19 G 30 16.09 Mostly Cloudy BKN090 18 1 32% 75.64 0.0
02 20:35 S 9 16.09 Mostly Cloudy BKN100 18 0 30% 75.64 0.0
02 20:15 S 11 16.09 Mostly Cloudy BKN100 18 -1 28% 75.64 0.0
02 19:55 S 11 16.09 Partly Cloudy SCT090 19 -1 26% 75.64 0.0
02 19:35 S 11 16.09 Fair CLR 19 0 28% 75.69 0.0
02 19:15 SW 13 16.09 Fair CLR 19 -1 26% 75.72 0.0
02 18:55 SW 7 16.09 Partly Cloudy SCT110 19 -1 26% 75.74 0.0
02 18:35 SW 9 16.09 Fair CLR 19 -1 26% 75.77 0.0
02 18:15 SW 13 G 28 16.09 Partly Cloudy SCT110 19 -1 26% 75.79 0.0
02 17:55 SW 11 16.09 Partly Cloudy SCT110 19 -1 26% 75.82 0.0
02 17:35 SW 11 16.09 Fair CLR 20 -1 24% 75.82 0.0
02 17:15 W 17 G 30 16.09 Fair CLR 20 -1 24% 75.84 0.0
02 16:55 W 20 G 35 16.09 Fair CLR 21 -1 23% 75.84 0.0
02 16:35 W 24 G 44 16.09 Fair CLR 19 -1 26% 75.87 0.0
02 16:15 W 22 G 35 16.09 Fair CLR 20 -1 24% 75.9 0.0
02 15:55 SW 22 G 35 16.09 Fair CLR 20 0 26% 75.9 0.0
02 15:35 SW 20 G 31 16.09 Fair CLR 21 0 25% 75.92 0.0
02 15:15 W 19 G 30 16.09 Fair CLR 20 -1 24% 75.97 0.0
02 14:55 W 17 G 30 16.09 Fair CLR 20 -1 24% 76 0.0
02 14:35 W 15 16.09 Fair CLR 20 -1 24% 76.02 0.0
02 14:15 W 22 G 33 16.09 Fair CLR 19 -1 26% 76.05 0.0
02 13:55 W 22 G 31 16.09 Fair CLR 20 -1 24% 76.05 0.0
02 13:35 W 17 G 30 16.09 Fair CLR 20 -1 24% 76.07 0.0
02 13:15 W 22 G 33 16.09 Fair CLR 20 0 26% 76.1 0.0
02 12:55 W 22 G 31 16.09 Fair CLR 19 1 30% 76.1 0.0
02 12:35 W 13 G 35 16.09 Fair CLR 19 1 30% 76.12 0.0
02 12:15 W 19 G 30 16.09 Fair CLR 18 1 32% 76.17 0.0
02 11:55 W 17 16.09 Fair CLR 18 0 30% 76.2 0.0
02 11:35 SW 15 16.09 Fair CLR 17 0 32% 76.23 0.0
02 11:15 SW 13 16.09 Fair CLR 17 0 32% 76.25 0.0
02 10:55 SW 9 16.09 Fair CLR 16 -1 31% 76.28 0.0
02 10:35 SW 19 16.09 Fair CLR 14 -1 36% 76.28 0.0
02 10:15 SW 17 G 26 16.09 Fair CLR 13 -1 38% 76.3 0.0
02 09:55 SW 17 16.09 Fair CLR 12 -1 41% 76.33 0.0
02 09:35 SW 17 16.09 Fair CLR 12 -1 41% 76.35 0.0
02 09:15 SW 13 16.09 Fair CLR 11 -1 44% 76.38 0.0
02 08:55 SW 11 16.09 Fair CLR 9 -2 46% 8 76.38 0.0
02 08:35 SW 11 16.09 Fair CLR 8 -1 53% 6 76.38 0.0
02 08:15 SW 9 16.09 Partly Cloudy SCT100 7 -1 57% 5 76.4 0.0
02 07:55 SW 13 16.09 Partly Cloudy SCT100 6 -2 57% 4 76.4 0.0
02 07:35 SW 11 16.09 Partly Cloudy SCT100 4 -2 65% 2 76.4 0.0
02 07:15 SW 13 16.09 Partly Cloudy SCT100 4 -2 65% 1 76.4 0.0
02 06:55 SW 11 16.09 Partly Cloudy SCT090 3 -2 70% 0 76.4 0.0
02 06:35 SW 11 16.09 Mostly Cloudy BKN090 3 -2 70% 0 76.43 0.0
Date Time (cdt) Wind (kph) Vis. (km) Weather Sky Cond. Air Dwpt Max. Min. Relative Humidity Wind Chill (°C) Heat Index (°C) altimeter (cm) sea level (mb) 1 hr 3 hr 6 hr
6 hour
Temperature (ºC) Pressure Precipitation (cm)